Time;durP1;ratioP1;P1;durP2;ratioP2;P2;SDS_P1;SDS_P2;PMS_P1;PMS_P2;Temp;Humidity;BMP_temperature;BMP_pressure;BME280_temperature;BME280_humidity;BME280_pressure;Samples;Min_cycle;Max_cycle;Signal;HPM_P1;HPM_P2
2021/09/30 04:32:45;;;;;;;4.53;1.53;;;6.50;99.90;;;;;;5044973;23;20902;-76
2021/09/30 04:35:11;;;;;;;1.07;0.97;;;6.50;99.90;;;;;;4981650;28;20477;-76
2021/09/30 04:37:36;;;;;;;4.93;1.40;;;6.50;99.90;;;;;;4980877;28;20184;-77
2021/09/30 04:40:03;;;;;;;1.90;1.20;;;6.40;99.90;;;;;;4992973;28;20212;-76
2021/09/30 04:42:28;;;;;;;1.60;1.10;;;6.40;99.90;;;;;;4976581;28;20193;-77
2021/09/30 04:44:54;;;;;;;1.73;1.33;;;6.40;99.90;;;;;;4973308;28;20427;-76
2021/09/30 04:47:20;;;;;;;1.37;1.23;;;6.40;99.90;;;;;;4973670;28;20183;-76
2021/09/30 04:49:45;;;;;;;2.50;2.07;;;6.40;99.90;;;;;;4973485;28;20191;-76
2021/09/30 04:52:11;;;;;;;3.90;3.50;;;6.40;99.90;;;;;;4973289;28;20742;-77
2021/09/30 04:54:37;;;;;;;1.80;1.53;;;6.40;99.90;;;;;;4973153;28;20231;-75
2021/09/30 04:57:03;;;;;;;3.97;1.37;;;6.40;99.90;;;;;;4973281;28;20184;-75
2021/09/30 04:59:28;;;;;;;1.40;1.13;;;6.40;99.90;;;;;;4973491;28;20171;-75
2021/09/30 05:01:54;;;;;;;2.73;1.30;;;6.40;99.90;;;;;;4972888;28;20844;-76
2021/09/30 05:04:19;;;;;;;1.40;1.30;;;6.40;99.90;;;;;;4973397;28;20179;-76
2021/09/30 05:06:45;;;;;;;4.73;1.23;;;6.40;99.90;;;;;;4974332;28;20189;-76
2021/09/30 05:09:12;;;;;;;3.07;1.50;;;6.40;99.90;;;;;;4973171;28;20184;-76
2021/09/30 05:11:46;;;;;;;4.97;1.50;;;6.40;99.90;;;;;;4973132;28;20188;-76
2021/09/30 05:14:12;;;;;;;1.47;1.00;;;6.30;99.90;;;;;;4973699;28;20454;-77
2021/09/30 05:16:37;;;;;;;1.93;1.57;;;6.30;99.90;;;;;;4973310;28;20430;-76
2021/09/30 05:19:03;;;;;;;2.40;1.33;;;6.30;99.90;;;;;;4972891;28;20209;-75
2021/09/30 05:21:29;;;;;;;3.10;1.40;;;6.30;99.90;;;;;;4972360;28;20886;-76
2021/09/30 05:23:54;;;;;;;2.90;2.47;;;6.30;99.90;;;;;;4972677;28;20199;-73
2021/09/30 05:26:20;;;;;;;2.83;1.43;;;6.40;99.90;;;;;;4972853;28;20174;-75
2021/09/30 05:28:45;;;;;;;2.83;1.53;;;6.30;99.90;;;;;;4972794;28;20215;-74
2021/09/30 05:31:11;;;;;;;2.47;1.20;;;6.40;99.90;;;;;;4972393;28;20216;-76
2021/09/30 05:33:36;;;;;;;6.60;3.23;;;6.40;99.90;;;;;;4972670;28;20183;-76
2021/09/30 05:36:02;;;;;;;3.83;3.53;;;6.30;99.90;;;;;;4972298;28;20173;-76
2021/09/30 05:38:29;;;;;;;8.03;3.07;;;6.40;99.90;;;;;;4972589;28;20184;-75
2021/09/30 05:40:55;;;;;;;5.00;2.10;;;6.40;99.90;;;;;;4972362;28;20435;-74
2021/09/30 05:43:30;;;;;;;1.57;1.47;;;6.50;99.90;;;;;;4972795;28;20921;-74
2021/09/30 05:45:56;;;;;;;3.50;1.80;;;6.60;99.90;;;;;;4972472;28;20175;-74
2021/09/30 05:48:26;;;;;;;2.13;2.00;;;6.80;99.90;;;;;;4972647;28;20478;-75
2021/09/30 05:50:53;;;;;;;4.40;2.30;;;7.30;99.90;;;;;;4972720;28;20433;-75
2021/09/30 05:53:18;;;;;;;3.30;1.53;;;8.10;99.90;;;;;;4972818;28;20418;-74
2021/09/30 05:55:45;;;;;;;2.07;1.80;;;9.10;99.90;;;;;;4971334;28;20516;-75
2021/09/30 05:58:11;;;;;;;4.07;2.17;;;10.20;99.90;;;;;;4972930;28;20630;-75
2021/09/30 06:08:50;;;;;;;2.97;1.27;;;13.30;99.90;;;;;;4972244;28;20426;-75
2021/09/30 06:14:23;;;;;;;3.47;1.43;;;15.60;99.90;;;;;;4952897;29;20474;-75
2021/09/30 06:16:51;;;;;;;2.20;1.20;;;16.20;99.90;;;;;;4953347;29;20863;-76
2021/09/30 06:19:21;;;;;;;2.73;1.20;;;16.80;99.90;;;;;;4952696;29;20421;-76
2021/09/30 06:21:48;;;;;;;2.30;0.90;;;17.40;99.90;;;;;;4953103;29;20444;-77
2021/09/30 06:24:19;;;;;;;4.20;1.07;;;17.80;99.90;;;;;;4952344;29;20964;-75
2021/09/30 06:26:45;;;;;;;4.53;1.00;;;18.20;99.90;;;;;;4953441;29;20523;-77
2021/09/30 06:29:12;;;;;;;1.63;1.10;;;18.30;99.90;;;;;;4952922;29;20466;-76
2021/09/30 06:31:38;;;;;;;1.90;1.20;;;18.40;99.90;;;;;;4953023;29;20459;-76
2021/09/30 06:34:03;;;;;;;2.10;1.03;;;18.70;99.90;;;;;;4954651;28;20964;-75
2021/09/30 06:36:30;;;;;;;1.40;1.10;;;18.50;99.90;;;;;;4956606;29;20180;-76
2021/09/30 06:38:55;;;;;;;1.50;1.00;;;18.60;99.90;;;;;;4956435;29;20200;-73
2021/09/30 06:41:21;;;;;;;3.50;1.03;;;18.80;99.90;;;;;;4956208;29;20432;-74
2021/09/30 06:43:46;;;;;;;2.60;1.23;;;19.20;99.90;;;;;;4956090;29;20184;-73
2021/09/30 06:46:12;;;;;;;2.60;1.90;;;20.40;99.90;;;;;;4956017;29;20611;-74
2021/09/30 06:48:37;;;;;;;5.67;1.40;;;20.60;99.90;;;;;;4956241;29;20522;-75
2021/09/30 06:51:04;;;;;;;1.90;0.93;;;21.10;99.90;;;;;;4955827;29;20192;-76
2021/09/30 06:53:30;;;;;;;2.40;1.57;;;21.10;99.90;;;;;;4956087;29;20173;-75
2021/09/30 06:56:00;;;;;;;5.27;0.90;;;20.70;99.90;;;;;;4955776;29;20416;-75
2021/09/30 06:58:26;;;;;;;3.00;1.30;;;21.50;99.90;;;;;;4956089;29;20180;-74
2021/09/30 07:00:56;;;;;;;2.03;1.00;;;22.10;99.90;;;;;;4955803;29;20432;-75
2021/09/30 07:03:26;;;;;;;1.57;1.17;;;22.60;99.90;;;;;;4955956;29;20169;-76
2021/09/30 07:05:52;;;;;;;4.70;1.90;;;22.60;99.90;;;;;;4955517;29;20499;-75
2021/09/30 07:08:17;;;;;;;2.63;0.90;;;22.20;99.90;;;;;;4955778;29;20512;-76
2021/09/30 07:10:44;;;;;;;2.00;0.80;;;22.50;99.90;;;;;;4953611;29;20177;-74
2021/09/30 07:13:09;;;;;;;1.00;0.70;;;22.40;99.90;;;;;;4954102;29;20184;-75
2021/09/30 07:15:35;;;;;;;1.40;0.83;;;21.90;99.90;;;;;;4955264;29;20882;-75
2021/09/30 07:18:30;;;;;;;1.00;0.80;;;21.20;99.90;;;;;;4953953;29;20187;-74
2021/09/30 07:21:03;;;;;;;2.57;1.30;;;20.30;99.90;;;;;;4946648;28;20366;-75
2021/09/30 07:23:29;;;;;;;1.90;0.80;;;19.60;99.90;;;;;;4955270;29;20444;-77
2021/09/30 07:25:55;;;;;;;1.70;0.80;;;19.20;99.90;;;;;;4954987;29;20416;-76
2021/09/30 07:28:21;;;;;;;3.17;0.70;;;18.70;99.90;;;;;;4955018;29;20424;-75
2021/09/30 07:30:49;;;;;;;2.10;0.60;;;18.50;99.90;;;;;;4955056;29;20239;-75
2021/09/30 07:33:16;;;;;;;2.80;0.80;;;18.10;99.90;;;;;;4955379;29;20272;-76
2021/09/30 07:35:42;;;;;;;3.83;0.90;;;17.80;99.90;;;;;;4954832;29;20460;-74
2021/09/30 07:38:08;;;;;;;1.60;0.67;;;17.70;99.90;;;;;;4955142;29;20447;-75
2021/09/30 07:40:34;;;;;;;1.67;0.70;;;17.50;99.90;;;;;;4955236;29;20460;-74
2021/09/30 07:43:00;;;;;;;0.63;0.50;;;17.20;99.90;;;;;;4954998;29;20544;-74
2021/09/30 07:45:25;;;;;;;1.97;0.70;;;17.40;99.90;;;;;;4954658;28;20554;-75
2021/09/30 07:47:51;;;;;;;3.37;0.70;;;17.50;99.90;;;;;;4954866;29;20664;-75
2021/09/30 07:50:17;;;;;;;3.00;0.80;;;17.90;99.90;;;;;;4955001;29;20650;-73
2021/09/30 07:52:42;;;;;;;4.50;1.00;;;17.90;99.90;;;;;;4954610;29;20188;-75
2021/09/30 07:55:09;;;;;;;1.00;0.50;;;17.90;99.90;;;;;;4954259;29;20212;-76
2021/09/30 07:57:34;;;;;;;1.50;0.90;;;17.90;99.90;;;;;;4954802;28;20173;-76
2021/09/30 08:00:00;;;;;;;0.83;0.70;;;18.00;99.90;;;;;;4954601;29;20416;-74
2021/09/30 08:02:25;;;;;;;1.90;0.80;;;18.00;99.90;;;;;;4954636;29;20666;-74
2021/09/30 08:04:51;;;;;;;1.70;0.63;;;18.10;99.90;;;;;;4954457;29;20267;-73
2021/09/30 08:07:17;;;;;;;2.17;0.60;;;18.30;99.90;;;;;;4954902;29;20185;-74
2021/09/30 08:09:42;;;;;;;2.57;0.80;;;18.50;99.90;;;;;;4954525;29;20172;-74
2021/09/30 08:12:09;;;;;;;2.30;0.63;;;18.30;99.90;;;;;;4954690;29;20582;-74
2021/09/30 08:14:34;;;;;;;5.03;0.63;;;18.10;99.90;;;;;;4954657;28;20294;-74
2021/09/30 08:17:00;;;;;;;2.33;0.67;;;18.20;99.90;;;;;;4954562;29;20507;-74
2021/09/30 08:19:26;;;;;;;5.03;0.67;;;18.60;99.90;;;;;;4955086;28;20177;-74
2021/09/30 08:21:52;;;;;;;3.87;0.73;;;18.90;99.90;;;;;;4954444;29;20685;-74
2021/09/30 08:24:19;;;;;;;2.83;0.60;;;19.20;99.90;;;;;;4954715;28;20196;-74
2021/09/30 08:26:45;;;;;;;2.60;0.73;;;19.30;99.90;;;;;;4954205;28;20189;-74
2021/09/30 08:29:15;;;;;;;3.70;0.90;;;19.40;99.90;;;;;;4954414;28;20416;-74
2021/09/30 08:31:41;;;;;;;5.73;4.90;;;19.10;99.90;;;;;;4954007;28;20460;-76
2021/09/30 08:34:07;;;;;;;2.10;1.10;;;18.70;99.90;;;;;;4954130;28;20949;-75
2021/09/30 08:36:33;;;;;;;2.00;0.90;;;18.80;99.90;;;;;;4954009;29;20409;-75
2021/09/30 08:38:59;;;;;;;6.13;1.90;;;18.60;99.90;;;;;;4954099;28;20184;-75
2021/09/30 08:41:25;;;;;;;7.10;0.60;;;18.80;99.90;;;;;;4954015;28;20476;-75
2021/09/30 08:43:52;;;;;;;1.10;0.77;;;19.20;99.90;;;;;;4954012;28;20504;-75
2021/09/30 08:46:18;;;;;;;2.57;0.90;;;19.30;99.90;;;;;;4953803;29;20408;-75
2021/09/30 08:48:44;;;;;;;3.87;0.70;;;19.10;99.90;;;;;;4953852;28;20519;-74
2021/09/30 08:51:12;;;;;;;1.80;0.50;;;18.70;99.90;;;;;;4953967;28;20575;-75
2021/09/30 08:53:38;;;;;;;1.70;0.57;;;18.60;99.90;;;;;;4953943;28;20263;-74
2021/09/30 08:56:06;;;;;;;1.83;0.60;;;18.40;99.90;;;;;;4953119;28;20423;-75
2021/09/30 08:58:33;;;;;;;3.10;0.90;;;18.10;99.90;;;;;;4953939;28;20416;-75
2021/09/30 09:01:01;;;;;;;2.73;0.83;;;17.60;99.90;;;;;;4953737;28;20440;-75
2021/09/30 09:03:47;;;;;;;8.97;0.80;;;17.20;99.90;;;;;;4953657;28;20857;-74
2021/09/30 09:06:34;;;;;;;2.73;0.60;;;17.00;99.90;;;;;;4953567;28;20419;-74
2021/09/30 09:09:23;;;;;;;2.60;1.00;;;16.90;99.90;;;;;;4953421;29;20424;-75
2021/09/30 09:11:50;;;;;;;2.33;0.53;;;16.60;99.90;;;;;;4953639;28;20491;-75
2021/09/30 09:14:28;;;;;;;1.57;0.80;;;16.60;99.90;;;;;;4953538;28;20558;-75
2021/09/30 09:17:01;;;;;;;2.63;0.70;;;16.70;99.90;;;;;;4952587;29;20440;-75
2021/09/30 09:19:37;;;;;;;2.63;0.60;;;16.70;99.90;;;;;;4954054;28;20444;-75
2021/09/30 09:22:07;;;;;;;1.93;0.57;;;17.00;99.90;;;;;;4953644;29;20965;-75
2021/09/30 09:24:33;;;;;;;1.60;0.60;;;16.70;99.90;;;;;;4953441;29;20970;-75
2021/09/30 09:27:02;;;;;;;1.70;0.60;;;16.70;99.90;;;;;;4953301;29;20424;-75
2021/09/30 09:29:31;;;;;;;2.37;0.57;;;17.10;99.90;;;;;;4953476;28;20177;-77
2021/09/30 09:32:04;;;;;;;1.70;0.70;;;17.30;99.90;;;;;;4952577;28;20495;-75
2021/09/30 09:34:38;;;;;;;2.73;0.60;;;17.60;99.90;;;;;;4953088;28;20471;-75
2021/09/30 09:39:57;;;;;;;1.27;0.87;;;18.90;99.90;;;;;;4953285;28;20467;-75
2021/09/30 09:42:30;;;;;;;4.73;0.70;;;19.70;99.90;;;;;;4952983;28;20475;-75
2021/09/30 09:45:05;;;;;;;1.77;0.70;;;20.20;99.90;;;;;;4952764;28;20551;-75
2021/09/30 09:47:36;;;;;;;1.47;0.50;;;20.30;99.90;;;;;;4953268;28;20423;-77
2021/09/30 09:50:18;;;;;;;1.40;0.60;;;20.40;99.90;;;;;;4953290;28;20408;-75
2021/09/30 09:53:01;;;;;;;1.70;0.57;;;20.70;99.90;;;;;;4952943;28;20439;-75
2021/09/30 09:55:33;;;;;;;1.70;0.57;;;20.80;99.90;;;;;;4953220;28;20460;-73
2021/09/30 09:58:05;;;;;;;1.80;0.50;;;20.80;99.90;;;;;;4952887;28;20422;-76
2021/09/30 10:00:42;;;;;;;0.60;0.50;;;20.50;99.90;;;;;;4951805;29;20420;-75
2021/09/30 10:03:19;;;;;;;1.13;0.60;;;19.50;99.90;;;;;;4952958;28;20780;-76
2021/09/30 10:05:46;;;;;;;0.60;0.40;;;19.50;99.90;;;;;;4952771;28;20779;-76
2021/09/30 10:08:14;;;;;;;3.37;0.40;;;19.60;99.90;;;;;;4955837;28;20424;-74
2021/09/30 10:10:40;;;;;;;0.60;0.50;;;19.70;99.90;;;;;;4956748;28;20921;-76
2021/09/30 10:13:06;;;;;;;2.77;0.50;;;20.10;99.90;;;;;;4956720;28;21091;-76
2021/09/30 10:15:33;;;;;;;1.47;0.50;;;20.20;99.90;;;;;;4956562;28;20459;-76
2021/09/30 10:18:02;;;;;;;1.07;0.60;;;20.30;99.90;;;;;;4956930;28;20967;-76
2021/09/30 10:20:28;;;;;;;2.10;0.47;;;20.60;99.90;;;;;;4956732;28;20467;-75
2021/09/30 10:22:55;;;;;;;2.00;0.97;;;20.90;99.90;;;;;;4956480;28;20412;-76
2021/09/30 10:25:21;;;;;;;4.40;0.50;;;20.90;99.90;;;;;;4954472;28;20431;-76
2021/09/30 10:27:58;;;;;;;0.60;0.40;;;20.90;99.90;;;;;;4956200;29;20960;-75
2021/09/30 10:30:38;;;;;;;3.23;0.50;;;21.30;99.90;;;;;;4956463;28;20412;-75
2021/09/30 10:33:07;;;;;;;4.53;0.60;;;21.40;99.50;;;;;;4955118;29;20423;-75
2021/09/30 10:35:39;;;;;;;1.10;0.50;;;21.20;99.10;;;;;;4955924;28;20456;-75
2021/09/30 10:38:29;;;;;;;5.80;0.70;;;20.80;99.10;;;;;;4955990;28;20802;-75
2021/09/30 10:41:00;;;;;;;0.60;0.50;;;20.50;99.90;;;;;;4950975;29;20452;-76
2021/09/30 10:43:29;;;;;;;1.23;0.60;;;20.20;99.90;;;;;;4956300;29;20503;-76
2021/09/30 10:45:55;;;;;;;1.47;0.50;;;19.80;99.90;;;;;;4955735;28;20491;-75
2021/09/30 10:48:24;;;;;;;2.93;0.60;;;20.20;99.90;;;;;;4956011;28;20571;-76
2021/09/30 10:51:06;;;;;;;0.90;0.50;;;21.00;99.90;;;;;;4955785;29;20537;-75
2021/09/30 10:53:46;;;;;;;1.83;0.50;;;21.20;99.90;;;;;;4956088;28;20508;-75
2021/09/30 10:56:24;;;;;;;0.80;0.40;;;21.40;99.90;;;;;;4956330;29;20507;-77
2021/09/30 10:58:51;;;;;;;2.67;0.60;;;21.50;99.90;;;;;;4955352;29;20424;-76
2021/09/30 11:01:17;;;;;;;2.83;0.50;;;21.40;99.80;;;;;;4956604;28;20428;-77
2021/09/30 11:04:04;;;;;;;1.20;0.60;;;20.90;97.60;;;;;;4955931;28;20463;-78
2021/09/30 11:06:29;;;;;;;0.70;0.53;;;20.70;99.20;;;;;;4957016;28;20499;-76
2021/09/30 11:09:17;;;;;;;1.10;0.50;;;20.80;98.70;;;;;;4956311;28;20448;-76
2021/09/30 11:11:48;;;;;;;2.90;0.93;;;20.40;99.80;;;;;;4956551;28;20197;-77
2021/09/30 11:14:19;;;;;;;1.43;0.83;;;20.50;99.90;;;;;;4956519;28;20979;-76
2021/09/30 11:16:48;;;;;;;2.50;1.03;;;20.40;99.90;;;;;;4955803;28;20953;-76
2021/09/30 11:19:31;;;;;;;1.07;0.63;;;20.50;99.90;;;;;;4955030;28;20890;-76
2021/09/30 11:22:02;;;;;;;3.17;0.70;;;20.70;99.90;;;;;;4955506;28;20440;-76
2021/09/30 11:24:30;;;;;;;2.47;0.70;;;20.60;99.90;;;;;;4956156;28;20922;-77
2021/09/30 11:26:55;;;;;;;2.83;0.63;;;20.20;99.90;;;;;;4955778;28;20503;-76
2021/09/30 11:29:21;;;;;;;0.80;0.47;;;20.00;99.90;;;;;;4956015;29;20447;-76
2021/09/30 11:31:49;;;;;;;2.90;0.50;;;20.10;99.90;;;;;;4956014;29;20212;-76
2021/09/30 11:34:26;;;;;;;0.70;0.50;;;20.50;99.90;;;;;;4962006;28;20213;-76
2021/09/30 11:36:53;;;;;;;1.87;0.50;;;20.50;99.90;;;;;;4963160;28;20444;-76
2021/09/30 11:39:20;;;;;;;1.17;0.50;;;20.20;99.90;;;;;;4955591;29;20409;-75
2021/09/30 11:41:47;;;;;;;1.67;0.40;;;19.70;99.90;;;;;;4955621;29;20467;-76
2021/09/30 11:44:14;;;;;;;4.73;0.50;;;19.30;99.90;;;;;;4955565;29;20439;-76
2021/09/30 11:46:42;;;;;;;8.67;0.70;;;19.50;99.90;;;;;;4955401;29;20420;-77
2021/09/30 11:49:13;;;;;;;2.30;0.53;;;19.70;99.90;;;;;;4955571;29;20929;-77
2021/09/30 11:51:38;;;;;;;4.23;0.67;;;19.70;99.90;;;;;;4955117;29;20444;-76
2021/09/30 11:54:05;;;;;;;0.90;0.40;;;19.20;99.90;;;;;;4954992;29;20525;-77
2021/09/30 11:56:40;;;;;;;3.43;0.80;;;19.00;99.90;;;;;;4955048;29;20173;-76
2021/09/30 11:59:07;;;;;;;1.57;0.57;;;18.50;99.90;;;;;;4955732;29;20412;-76
2021/09/30 12:01:38;;;;;;;5.07;0.60;;;18.10;99.90;;;;;;4955579;29;20450;-76
2021/09/30 12:04:05;;;;;;;1.43;0.50;;;18.00;99.90;;;;;;4955485;29;20427;-76
2021/09/30 12:06:41;;;;;;;2.50;0.40;;;18.00;99.90;;;;;;4954983;29;20789;-75
2021/09/30 12:09:10;;;;;;;3.33;0.60;;;17.80;99.90;;;;;;4955161;29;20423;-75
2021/09/30 12:11:51;;;;;;;2.70;0.63;;;18.10;99.90;;;;;;4955680;29;21014;-75
2021/09/30 12:14:20;;;;;;;1.43;0.70;;;18.30;99.90;;;;;;4955488;29;20460;-75
2021/09/30 12:17:01;;;;;;;1.67;0.70;;;18.70;99.90;;;;;;4954904;29;20419;-76
2021/09/30 12:19:43;;;;;;;3.37;0.90;;;18.70;99.90;;;;;;4955707;28;20416;-76
2021/09/30 12:22:21;;;;;;;1.67;0.87;;;18.80;99.90;;;;;;4955330;28;20432;-75
2021/09/30 12:24:52;;;;;;;1.37;0.60;;;18.90;99.90;;;;;;4955028;29;20421;-75
2021/09/30 12:27:20;;;;;;;0.80;0.60;;;18.50;99.90;;;;;;4954782;29;20412;-76
2021/09/30 12:29:48;;;;;;;1.23;0.60;;;18.40;99.90;;;;;;4954316;28;20420;-76
2021/09/30 12:32:17;;;;;;;1.03;0.53;;;18.30;99.90;;;;;;4953390;29;20459;-76
2021/09/30 12:35:03;;;;;;;2.23;0.50;;;18.30;99.90;;;;;;4954111;29;20985;-76
2021/09/30 12:37:31;;;;;;;2.77;0.50;;;18.20;99.90;;;;;;4954172;28;20519;-76
2021/09/30 12:40:06;;;;;;;1.27;0.50;;;17.70;99.90;;;;;;4953531;28;20420;-76
2021/09/30 12:42:32;;;;;;;2.20;0.60;;;17.20;99.90;;;;;;4954055;29;20428;-76
2021/09/30 12:44:58;;;;;;;6.27;0.80;;;16.80;99.90;;;;;;4952698;29;20432;-76
2021/09/30 12:47:39;;;;;;;1.57;0.90;;;16.70;99.90;;;;;;4955023;28;20941;-77
2021/09/30 12:50:06;;;;;;;1.67;0.50;;;16.80;99.90;;;;;;4954659;28;20427;-76
2021/09/30 12:52:31;;;;;;;2.10;0.60;;;17.00;99.90;;;;;;4954752;28;20440;-75
2021/09/30 12:54:57;;;;;;;1.70;0.40;;;17.30;99.90;;;;;;4954173;29;20456;-77
2021/09/30 12:57:32;;;;;;;2.60;0.70;;;17.50;99.90;;;;;;4954785;29;20212;-76
2021/09/30 13:00:10;;;;;;;1.70;0.60;;;17.70;99.90;;;;;;4953653;29;20176;-76
2021/09/30 13:02:36;;;;;;;1.43;0.70;;;17.60;99.90;;;;;;4954463;28;20436;-76
2021/09/30 13:05:02;;;;;;;2.20;0.87;;;17.60;99.90;;;;;;4954653;28;21012;-77
2021/09/30 13:07:46;;;;;;;1.27;0.50;;;17.70;99.90;;;;;;4954562;28;20456;-77
2021/09/30 13:10:14;;;;;;;2.90;0.50;;;17.50;99.90;;;;;;4954303;28;21121;-77
2021/09/30 13:12:56;;;;;;;1.03;0.50;;;17.50;99.90;;;;;;4954057;28;21105;-77
2021/09/30 13:15:36;;;;;;;1.77;0.60;;;17.50;99.90;;;;;;4953791;28;20462;-76
2021/09/30 13:18:03;;;;;;;2.40;0.60;;;17.40;99.90;;;;;;4954369;28;20417;-76
2021/09/30 13:20:30;;;;;;;0.70;0.40;;;17.40;99.90;;;;;;4954358;28;20443;-77
2021/09/30 13:22:56;;;;;;;1.13;0.50;;;17.50;99.90;;;;;;4954199;28;20412;-77
2021/09/30 13:25:22;;;;;;;1.23;0.50;;;17.50;99.90;;;;;;4956904;28;20447;-76
2021/09/30 13:27:50;;;;;;;4.50;0.77;;;17.50;99.90;;;;;;4955334;28;20246;-77
2021/09/30 13:30:22;;;;;;;2.33;0.60;;;17.30;99.90;;;;;;4954011;28;20426;-76
2021/09/30 13:32:48;;;;;;;6.30;0.50;;;17.30;99.90;;;;;;4953587;28;20458;-77
2021/09/30 13:35:15;;;;;;;1.53;0.70;;;17.30;99.90;;;;;;4953965;28;20467;-76
2021/09/30 13:37:41;;;;;;;2.60;0.50;;;17.40;99.90;;;;;;4953868;28;20404;-76
2021/09/30 13:40:09;;;;;;;1.80;0.60;;;17.30;99.90;;;;;;4953822;28;20555;-76
2021/09/30 13:42:36;;;;;;;2.50;0.50;;;17.30;99.90;;;;;;4955280;28;20443;-78
2021/09/30 13:45:05;;;;;;;2.83;0.40;;;17.30;99.90;;;;;;4957170;28;20424;-77
2021/09/30 13:47:31;;;;;;;3.57;0.60;;;17.30;99.90;;;;;;4972435;28;20898;-80
2021/09/30 13:49:58;;;;;;;1.00;0.53;;;17.20;99.90;;;;;;4957244;29;20568;-77
2021/09/30 13:52:24;;;;;;;4.93;0.73;;;17.10;99.90;;;;;;4957381;28;20232;-77
2021/09/30 13:54:49;;;;;;;0.87;0.87;;;17.00;99.90;;;;;;4956951;28;20941;-77
2021/09/30 13:57:15;;;;;;;2.10;0.63;;;17.00;99.90;;;;;;4957266;29;20450;-73
2021/09/30 13:59:40;;;;;;;1.03;0.50;;;17.00;99.90;;;;;;4957110;29;20264;-74
2021/09/30 14:02:07;;;;;;;2.60;0.50;;;17.10;99.90;;;;;;4956592;29;20204;-75
2021/09/30 14:04:34;;;;;;;1.83;0.50;;;17.10;99.90;;;;;;4957124;28;20180;-74
2021/09/30 14:07:00;;;;;;;1.53;0.50;;;17.00;99.90;;;;;;4956719;28;20463;-75
2021/09/30 14:09:26;;;;;;;1.67;0.50;;;17.00;99.90;;;;;;4956910;29;20451;-74
2021/09/30 14:11:53;;;;;;;4.43;0.57;;;16.90;99.90;;;;;;4956784;29;20196;-73
2021/09/30 14:14:19;;;;;;;4.17;0.77;;;16.80;99.90;;;;;;4956632;28;20204;-74
2021/09/30 14:16:49;;;;;;;0.93;0.47;;;16.70;99.90;;;;;;4956409;28;20829;-74
2021/09/30 14:19:15;;;;;;;1.83;0.60;;;16.60;99.90;;;;;;4956569;28;20451;-74
2021/09/30 14:21:41;;;;;;;3.33;1.83;;;16.60;99.90;;;;;;4975790;28;20439;-77
2021/09/30 14:24:06;;;;;;;0.60;0.50;;;16.70;99.90;;;;;;4975502;28;20465;-74
2021/09/30 14:26:32;;;;;;;1.63;0.67;;;16.70;99.90;;;;;;4975772;28;20184;-76
2021/09/30 14:28:58;;;;;;;0.70;0.40;;;16.80;99.90;;;;;;4975498;28;20238;-74
2021/09/30 14:31:24;;;;;;;0.67;0.50;;;16.80;99.90;;;;;;4975619;28;20458;-75
2021/09/30 14:33:49;;;;;;;0.47;0.40;;;16.80;99.90;;;;;;4975397;28;20172;-74
2021/09/30 14:36:15;;;;;;;2.50;0.67;;;16.90;99.90;;;;;;4975431;28;20238;-75
2021/09/30 14:38:40;;;;;;;0.87;0.50;;;16.80;99.90;;;;;;4975412;28;20175;-75
2021/09/30 14:41:06;;;;;;;0.70;0.60;;;16.80;99.90;;;;;;4974063;28;20200;-75
2021/09/30 14:43:36;;;;;;;2.20;0.70;;;16.90;99.90;;;;;;4975323;28;20183;-75
2021/09/30 14:46:03;;;;;;;4.17;0.80;;;16.70;99.90;;;;;;4974097;28;20187;-74
2021/09/30 14:48:28;;;;;;;1.83;0.60;;;16.70;99.90;;;;;;4961455;28;20424;-77
2021/09/30 14:50:54;;;;;;;0.70;0.50;;;16.70;99.90;;;;;;4955939;28;20458;-74
2021/09/30 14:53:20;;;;;;;1.03;0.60;;;16.50;99.90;;;;;;4955416;28;20180;-75
2021/09/30 14:55:45;;;;;;;2.80;0.67;;;16.60;99.90;;;;;;4953964;29;20216;-75
2021/09/30 14:58:11;;;;;;;2.40;0.60;;;16.60;99.90;;;;;;4956030;29;20237;-75
2021/09/30 15:00:36;;;;;;;0.80;0.50;;;16.50;99.90;;;;;;4961195;28;20196;-75
2021/09/30 15:03:05;;;;;;;2.20;0.63;;;16.50;99.90;;;;;;4955619;29;20179;-75
2021/09/30 15:05:34;;;;;;;5.17;0.50;;;16.50;99.90;;;;;;4956994;28;20177;-77
2021/09/30 15:08:02;;;;;;;1.63;0.60;;;16.50;99.90;;;;;;4956290;28;20761;-77
2021/09/30 15:10:28;;;;;;;4.87;1.00;;;16.40;99.90;;;;;;4955633;28;20416;-79
2021/09/30 15:12:54;;;;;;;1.73;0.70;;;16.30;99.90;;;;;;4955411;28;20498;-76
2021/09/30 15:15:20;;;;;;;1.63;0.50;;;16.30;99.90;;;;;;4955291;28;20219;-77
2021/09/30 15:17:53;;;;;;;1.27;0.60;;;16.20;99.90;;;;;;4955321;28;20452;-77
2021/09/30 15:23:14;;;;;;;0.87;0.57;;;16.10;99.90;;;;;;4955242;28;20424;-78
2021/09/30 15:25:43;;;;;;;0.87;0.50;;;16.10;99.90;;;;;;4955549;28;20423;-77
2021/09/30 15:28:10;;;;;;;1.53;0.60;;;16.00;99.90;;;;;;4952022;28;20514;-76
2021/09/30 15:30:36;;;;;;;1.80;0.60;;;15.90;99.90;;;;;;4953195;28;20431;-77
2021/09/30 15:33:02;;;;;;;1.07;0.77;;;15.80;99.90;;;;;;4961142;28;20518;-78
2021/09/30 15:35:29;;;;;;;4.10;0.77;;;15.80;99.90;;;;;;4957537;28;20554;-79
2021/09/30 15:37:54;;;;;;;3.00;0.80;;;15.80;99.90;;;;;;4971035;28;20259;-78
2021/09/30 15:40:20;;;;;;;1.63;0.70;;;15.70;99.90;;;;;;4970140;28;20427;-78
2021/09/30 15:42:46;;;;;;;0.80;0.60;;;15.70;99.90;;;;;;4971837;28;20279;-76
2021/09/30 15:45:12;;;;;;;0.80;0.50;;;15.60;99.90;;;;;;4970929;28;20210;-78
2021/09/30 15:47:38;;;;;;;4.13;0.53;;;15.60;99.90;;;;;;4956871;28;20837;-76
2021/09/30 15:50:04;;;;;;;0.67;0.40;;;15.60;99.90;;;;;;4952593;28;20439;-75
2021/09/30 15:52:30;;;;;;;2.87;0.40;;;15.50;99.90;;;;;;4957367;28;20209;-77
2021/09/30 15:54:55;;;;;;;4.00;0.50;;;15.40;99.90;;;;;;4959031;28;20459;-76
2021/09/30 15:57:21;;;;;;;1.17;0.53;;;15.40;99.90;;;;;;4960142;28;20890;-77
2021/09/30 15:59:46;;;;;;;1.47;0.63;;;15.30;99.90;;;;;;4959491;28;20176;-77
2021/09/30 16:02:12;;;;;;;0.90;0.60;;;15.30;99.90;;;;;;4959385;28;20193;-77
2021/09/30 16:04:37;;;;;;;2.30;0.90;;;15.30;99.90;;;;;;4961079;28;20191;-76
2021/09/30 16:07:03;;;;;;;0.90;0.60;;;15.10;99.90;;;;;;4959317;28;20200;-76
2021/09/30 16:09:29;;;;;;;0.60;0.60;;;15.00;99.90;;;;;;4959325;28;20558;-76
2021/09/30 16:11:54;;;;;;;3.60;0.60;;;15.00;99.90;;;;;;4959102;28;20236;-76
2021/09/30 16:14:20;;;;;;;1.20;0.60;;;14.90;99.90;;;;;;4961767;28;20223;-77
2021/09/30 16:16:46;;;;;;;0.63;0.63;;;14.90;99.90;;;;;;4959301;28;20207;-76
2021/09/30 16:19:12;;;;;;;1.80;0.73;;;14.80;99.90;;;;;;4959444;28;20564;-76
2021/09/30 16:21:38;;;;;;;2.50;1.00;;;14.70;99.90;;;;;;4959112;28;20806;-75
2021/09/30 16:24:04;;;;;;;2.53;0.87;;;14.70;99.90;;;;;;4957928;28;20442;-74
2021/09/30 16:26:29;;;;;;;2.63;0.80;;;14.60;99.90;;;;;;4961962;28;20180;-75
2021/09/30 16:28:56;;;;;;;4.93;0.90;;;14.50;99.90;;;;;;4961632;28;20456;-77
2021/09/30 16:31:23;;;;;;;1.90;0.93;;;14.50;99.90;;;;;;4964184;28;20216;-76
2021/09/30 16:33:48;;;;;;;7.40;0.80;;;14.40;99.90;;;;;;4973171;28;20902;-78
2021/09/30 16:36:14;;;;;;;2.47;0.93;;;14.40;99.90;;;;;;4973183;28;20475;-76
2021/09/30 16:38:41;;;;;;;1.20;0.80;;;14.30;99.90;;;;;;4973116;28;20180;-75
2021/09/30 16:41:07;;;;;;;3.03;0.70;;;14.20;99.90;;;;;;4973432;28;20796;-77
2021/09/30 16:43:33;;;;;;;2.37;0.80;;;14.10;99.90;;;;;;4973165;28;20510;-76
2021/09/30 16:46:01;;;;;;;2.13;0.70;;;14.10;99.90;;;;;;4972423;28;20519;-76
2021/09/30 16:48:27;;;;;;;3.73;1.10;;;14.00;99.90;;;;;;4972969;28;20191;-77
2021/09/30 16:50:53;;;;;;;1.00;0.80;;;13.80;99.90;;;;;;4973185;28;20929;-76
2021/09/30 16:53:21;;;;;;;2.10;1.17;;;13.70;99.90;;;;;;4972979;28;20234;-75
2021/09/30 16:55:50;;;;;;;1.03;0.70;;;13.60;99.90;;;;;;4973204;28;20960;-77
2021/09/30 16:58:16;;;;;;;1.07;0.80;;;13.50;99.90;;;;;;4973164;28;20412;-76
2021/09/30 17:00:41;;;;;;;4.07;1.17;;;13.40;99.90;;;;;;4973114;28;20784;-76
2021/09/30 17:03:07;;;;;;;2.30;1.00;;;13.20;99.90;;;;;;4971420;28;20186;-77
2021/09/30 17:05:32;;;;;;;2.90;0.97;;;13.10;99.90;;;;;;4972785;28;20219;-77
2021/09/30 17:07:58;;;;;;;2.13;1.00;;;13.00;99.90;;;;;;4973093;28;20184;-77
2021/09/30 17:10:25;;;;;;;4.60;3.53;;;12.90;99.90;;;;;;4968015;28;20196;-76
2021/09/30 17:12:51;;;;;;;3.10;1.70;;;12.80;99.90;;;;;;4953188;28;20204;-77
2021/09/30 17:15:19;;;;;;;3.57;0.83;;;12.70;99.90;;;;;;4969020;28;20474;-77
2021/09/30 17:17:47;;;;;;;1.77;0.80;;;12.50;99.90;;;;;;4972483;28;20901;-77
2021/09/30 17:20:13;;;;;;;1.33;1.23;;;12.40;99.90;;;;;;4971067;28;20774;-76
2021/09/30 17:22:40;;;;;;;3.13;1.30;;;12.20;99.90;;;;;;4972864;28;20435;-76
2021/09/30 17:25:07;;;;;;;2.17;1.13;;;12.20;99.90;;;;;;4972442;28;20485;-75
2021/09/30 17:27:36;;;;;;;2.93;1.20;;;12.00;99.90;;;;;;4972954;28;20427;-77
2021/09/30 17:30:06;;;;;;;6.40;0.90;;;12.00;99.90;;;;;;4972636;28;20431;-76
2021/09/30 17:32:31;;;;;;;1.77;1.57;;;11.90;99.90;;;;;;4972239;28;20465;-76
2021/09/30 17:34:59;;;;;;;2.13;1.20;;;11.80;99.90;;;;;;4972508;28;21022;-76
2021/09/30 17:37:25;;;;;;;1.57;1.47;;;11.70;99.90;;;;;;4972658;28;20307;-74
2021/09/30 17:39:51;;;;;;;2.30;1.17;;;11.60;99.90;;;;;;4971541;28;20943;-75
2021/09/30 17:42:18;;;;;;;6.13;3.00;;;11.60;99.90;;;;;;4972758;28;20439;-74